Time;durP1;ratioP1;P1;durP2;ratioP2;P2;SDS_P1;SDS_P2;PMS_P1;PMS_P2;Temp;Humidity;BMP_temperature;BMP_pressure;BME280_temperature;BME280_humidity;BME280_pressure;Samples;Min_cycle;Max_cycle;Signal;HPM_P1;HPM_P2
2022/05/22 00:00:10;;;;;;;2.28;2.08;;;;;;;;;;5139319;27;20202;-61
2022/05/22 00:02:37;;;;;;;2.00;1.90;;;;;;;;;;5140038;27;20491;-62
2022/05/22 00:05:05;;;;;;;1.98;1.88;;;;;;;;;;5140698;27;20228;-62
2022/05/22 00:07:33;;;;;;;1.90;1.80;;;;;;;;;;5139626;27;20206;-61
2022/05/22 00:10:01;;;;;;;2.00;1.90;;;;;;;;;;5118806;28;20223;-62
2022/05/22 00:12:28;;;;;;;2.00;1.90;;;;;;;;;;5119207;28;20202;-62
2022/05/22 00:14:57;;;;;;;1.80;1.70;;;;;;;;;;5118999;28;20249;-62
2022/05/22 00:17:24;;;;;;;1.90;1.80;;;;;;;;;;5119141;27;20199;-61
2022/05/22 00:19:52;;;;;;;2.10;1.90;;;;;;;;;;5118742;28;20199;-63
2022/05/22 00:22:19;;;;;;;1.63;1.50;;;;;;;;;;5119380;28;20221;-62
2022/05/22 00:24:47;;;;;;;1.90;1.80;;;;;;;;;;5118841;28;20480;-61
2022/05/22 00:27:15;;;;;;;2.03;1.92;;;;;;;;;;5129953;27;20466;-62
2022/05/22 00:29:42;;;;;;;1.90;1.80;;;;;;;;;;5139666;27;20327;-61
2022/05/22 00:32:11;;;;;;;1.80;1.70;;;;;;;;;;5139986;27;20202;-62
2022/05/22 00:34:39;;;;;;;2.03;1.92;;;;;;;;;;5136802;27;20202;-62
2022/05/22 00:37:07;;;;;;;1.95;1.85;;;;;;;;;;5118685;28;20195;-61
2022/05/22 00:39:34;;;;;;;2.00;1.90;;;;;;;;;;5118769;28;20207;-61
2022/05/22 00:42:02;;;;;;;2.08;1.98;;;;;;;;;;5118523;28;20597;-62
2022/05/22 00:44:29;;;;;;;2.10;2.00;;;;;;;;;;5119241;27;20280;-61
2022/05/22 00:46:57;;;;;;;1.95;1.80;;;;;;;;;;5139026;27;20209;-61
2022/05/22 00:49:28;;;;;;;2.10;2.00;;;;;;;;;;5139756;27;20249;-62
2022/05/22 00:51:57;;;;;;;2.30;2.10;;;;;;;;;;5138826;27;20212;-61
2022/05/22 00:54:26;;;;;;;2.00;1.90;;;;;;;;;;5138787;27;20235;-62
2022/05/22 00:56:55;;;;;;;2.00;1.90;;;;;;;;;;5118195;28;20210;-61
2022/05/22 00:59:26;;;;;;;1.90;1.80;;;;;;;;;;5117693;28;20211;-62
2022/05/22 01:01:55;;;;;;;2.00;1.90;;;;;;;;;;5118621;28;20203;-62
2022/05/22 01:04:23;;;;;;;2.00;1.90;;;;;;;;;;5128617;27;20236;-62
2022/05/22 01:06:52;;;;;;;2.10;1.90;;;;;;;;;;5138027;27;20198;-61
2022/05/22 01:09:20;;;;;;;1.98;1.88;;;;;;;;;;5138688;27;20287;-62
2022/05/22 01:11:49;;;;;;;2.08;1.98;;;;;;;;;;5138367;27;20198;-62
2022/05/22 01:14:21;;;;;;;1.80;1.70;;;;;;;;;;5128090;27;20230;-61
2022/05/22 01:16:49;;;;;;;2.03;1.90;;;;;;;;;;5117989;28;20213;-61
2022/05/22 01:19:17;;;;;;;1.90;1.80;;;;;;;;;;5118398;28;20205;-62
2022/05/22 01:21:51;;;;;;;2.10;1.92;;;;;;;;;;5118509;28;20203;-61
2022/05/22 01:24:18;;;;;;;2.20;2.10;;;;;;;;;;5117987;28;20728;-62
2022/05/22 01:26:46;;;;;;;1.90;1.80;;;;;;;;;;5118725;28;20593;-62
2022/05/22 01:29:13;;;;;;;1.80;1.70;;;;;;;;;;5118447;28;20234;-61
2022/05/22 01:31:41;;;;;;;2.05;1.92;;;;;;;;;;5127504;27;20236;-61
2022/05/22 01:34:08;;;;;;;2.00;1.90;;;;;;;;;;5138600;27;20487;-61
2022/05/22 01:36:35;;;;;;;1.98;1.88;;;;;;;;;;5137932;27;20304;-61
2022/05/22 01:39:05;;;;;;;1.83;1.70;;;;;;;;;;5138567;27;20196;-62
2022/05/22 01:41:32;;;;;;;2.13;2.03;;;;;;;;;;5130605;27;20191;-61
2022/05/22 01:44:00;;;;;;;1.90;1.80;;;;;;;;;;5118188;28;20203;-62
2022/05/22 01:46:27;;;;;;;2.05;1.95;;;;;;;;;;5117608;28;20206;-62
2022/05/22 01:48:55;;;;;;;2.00;1.90;;;;;;;;;;5117587;28;20223;-62
2022/05/22 01:51:22;;;;;;;2.22;2.03;;;;;;;;;;5123844;28;20198;-61
2022/05/22 01:53:50;;;;;;;1.98;1.88;;;;;;;;;;5137820;28;20221;-62
2022/05/22 01:56:18;;;;;;;2.10;2.00;;;;;;;;;;5138119;28;20202;-61
2022/05/22 01:58:47;;;;;;;2.03;1.92;;;;;;;;;;5138482;28;20198;-62
2022/05/22 02:01:14;;;;;;;2.00;1.90;;;;;;;;;;5137425;28;20436;-61
2022/05/22 02:03:42;;;;;;;1.90;1.80;;;;;;;;;;5138180;28;20201;-61
2022/05/22 02:06:09;;;;;;;1.85;1.75;;;;;;;;;;5138582;28;20494;-61
2022/05/22 02:08:38;;;;;;;1.85;1.75;;;;;;;;;;5137384;28;20202;-61
2022/05/22 02:11:07;;;;;;;2.33;1.90;;;;;;;;;;5139135;27;20215;-62
2022/05/22 02:13:37;;;;;;;1.88;1.77;;;;;;;;;;5141913;27;20214;-62
2022/05/22 02:16:05;;;;;;;1.85;1.75;;;;;;;;;;5142915;27;20199;-61
2022/05/22 02:18:32;;;;;;;1.80;1.70;;;;;;;;;;5141728;27;20367;-61
2022/05/22 02:21:00;;;;;;;2.20;2.00;;;;;;;;;;5139422;27;20191;-62
2022/05/22 02:23:27;;;;;;;1.80;1.70;;;;;;;;;;5121281;28;20556;-62
2022/05/22 02:25:56;;;;;;;1.83;1.73;;;;;;;;;;5121435;28;20574;-61
2022/05/22 02:28:25;;;;;;;2.00;1.80;;;;;;;;;;5121744;28;20476;-61
2022/05/22 02:30:55;;;;;;;2.10;2.00;;;;;;;;;;5122535;27;20241;-61
2022/05/22 02:33:23;;;;;;;2.00;1.90;;;;;;;;;;5141752;27;20608;-61
2022/05/22 02:35:51;;;;;;;1.75;1.60;;;;;;;;;;5141712;27;20202;-61
2022/05/22 02:38:19;;;;;;;1.95;1.85;;;;;;;;;;5141940;27;20202;-61
2022/05/22 02:40:46;;;;;;;2.03;1.90;;;;;;;;;;5141440;27;20601;-61
2022/05/22 02:43:14;;;;;;;1.60;1.50;;;;;;;;;;5121098;28;20214;-62
2022/05/22 02:45:41;;;;;;;1.90;1.80;;;;;;;;;;5120956;28;20203;-61
2022/05/22 02:48:12;;;;;;;1.90;1.73;;;;;;;;;;5120474;28;20729;-61
2022/05/22 02:50:39;;;;;;;2.05;1.95;;;;;;;;;;5120287;27;20222;-61
2022/05/22 02:53:07;;;;;;;1.90;1.80;;;;;;;;;;5120384;28;20213;-61
2022/05/22 02:55:34;;;;;;;2.17;1.98;;;;;;;;;;5120356;28;20203;-62
2022/05/22 02:58:01;;;;;;;2.10;2.00;;;;;;;;;;5120993;28;20203;-61
2022/05/22 03:00:30;;;;;;;1.80;1.70;;;;;;;;;;5130895;27;20195;-61
2022/05/22 03:02:58;;;;;;;1.80;1.70;;;;;;;;;;5141909;27;20274;-60
2022/05/22 03:06:37;;;;;;;1.95;1.85;;;;;;;;;;5141187;27;20262;-61
2022/05/22 03:08:15;;;;;;;1.98;1.88;;;;;;;;;;5141763;27;20198;-61
2022/05/22 03:10:44;;;;;;;1.70;1.60;;;;;;;;;;5129742;27;20303;-61
2022/05/22 03:13:12;;;;;;;1.67;1.58;;;;;;;;;;5121008;28;20283;-61
2022/05/22 03:15:40;;;;;;;2.20;2.10;;;;;;;;;;5121098;28;20606;-61
2022/05/22 03:18:07;;;;;;;2.00;1.90;;;;;;;;;;5121256;28;20225;-61
2022/05/22 03:20:36;;;;;;;1.90;1.80;;;;;;;;;;5131157;27;20194;-61
2022/05/22 03:23:04;;;;;;;1.95;1.85;;;;;;;;;;5140667;27;20206;-61
2022/05/22 03:25:31;;;;;;;1.88;1.77;;;;;;;;;;5141349;27;20202;-62
2022/05/22 03:27:59;;;;;;;1.75;1.65;;;;;;;;;;5141332;27;20194;-61
2022/05/22 03:30:26;;;;;;;1.70;1.60;;;;;;;;;;5131539;27;20219;-61
2022/05/22 03:32:54;;;;;;;1.98;1.88;;;;;;;;;;5120401;28;20214;-61
2022/05/22 03:35:21;;;;;;;2.10;2.00;;;;;;;;;;5120121;28;20226;-61
2022/05/22 03:37:50;;;;;;;2.00;1.90;;;;;;;;;;5120257;28;20499;-61
2022/05/22 03:40:17;;;;;;;2.00;1.90;;;;;;;;;;5127688;27;20187;-61
2022/05/22 03:42:45;;;;;;;1.83;1.73;;;;;;;;;;5129107;27;20498;-61
2022/05/22 03:45:12;;;;;;;1.90;1.80;;;;;;;;;;5120590;28;20619;-61
2022/05/22 03:47:40;;;;;;;1.90;1.80;;;;;;;;;;5120773;28;20203;-61
2022/05/22 03:50:08;;;;;;;2.13;2.03;;;;;;;;;;5126025;27;20214;-61
2022/05/22 03:52:36;;;;;;;1.90;1.80;;;;;;;;;;5140571;27;20592;-61
2022/05/22 03:55:08;;;;;;;1.90;1.80;;;;;;;;;;5140944;27;20289;-62
2022/05/22 03:57:35;;;;;;;1.85;1.75;;;;;;;;;;5140880;27;20202;-61
2022/05/22 04:00:03;;;;;;;2.00;1.80;;;;;;;;;;5135665;27;20437;-61
2022/05/22 04:02:30;;;;;;;1.92;1.83;;;;;;;;;;5120368;28;20311;-61
2022/05/22 04:04:57;;;;;;;1.98;1.88;;;;;;;;;;5120367;28;20225;-61
2022/05/22 04:07:25;;;;;;;1.67;1.58;;;;;;;;;;5120030;28;20497;-61
2022/05/22 04:09:52;;;;;;;1.80;1.70;;;;;;;;;;5122500;27;20218;-62
2022/05/22 04:12:21;;;;;;;1.80;1.70;;;;;;;;;;5139732;27;20604;-61
2022/05/22 04:14:49;;;;;;;1.80;1.70;;;;;;;;;;5140097;27;20249;-60
2022/05/22 04:17:16;;;;;;;1.73;1.63;;;;;;;;;;5140001;27;20506;-61
2022/05/22 04:19:43;;;;;;;1.80;1.70;;;;;;;;;;5138435;27;20213;-61
2022/05/22 04:22:11;;;;;;;1.90;1.80;;;;;;;;;;5119649;28;20203;-61
2022/05/22 04:27:25;;;;;;;2.03;1.80;;;;;;;;;;5119523;28;20248;-62
2022/05/22 04:29:52;;;;;;;1.90;1.80;;;;;;;;;;5121891;27;20229;-61
2022/05/22 04:32:20;;;;;;;1.70;1.60;;;;;;;;;;5139931;27;20202;-62
2022/05/22 04:34:47;;;;;;;1.75;1.65;;;;;;;;;;5139140;27;20203;-61
2022/05/22 04:37:15;;;;;;;1.90;1.80;;;;;;;;;;5139706;27;20577;-61
2022/05/22 04:39:42;;;;;;;2.00;1.90;;;;;;;;;;5138511;27;20198;-61
2022/05/22 04:42:10;;;;;;;1.80;1.70;;;;;;;;;;5119099;28;20210;-61
2022/05/22 04:44:38;;;;;;;2.00;1.90;;;;;;;;;;5119141;28;20574;-61
2022/05/22 04:47:06;;;;;;;1.90;1.80;;;;;;;;;;5119068;28;20203;-61
2022/05/22 04:49:33;;;;;;;1.70;1.60;;;;;;;;;;5118816;28;20594;-61
2022/05/22 04:52:01;;;;;;;1.80;1.70;;;;;;;;;;5118496;28;20202;-65
2022/05/22 04:54:28;;;;;;;1.63;1.52;;;;;;;;;;5119249;28;20210;-61
2022/05/22 04:56:55;;;;;;;1.70;1.60;;;;;;;;;;5119355;28;20603;-61
2022/05/22 04:59:23;;;;;;;1.58;1.48;;;;;;;;;;5119072;28;20213;-61
2022/05/22 05:01:52;;;;;;;1.60;1.50;;;;;;;;;;5137022;27;20630;-62
2022/05/22 05:04:20;;;;;;;1.90;1.80;;;;;;;;;;5139690;27;20233;-61
2022/05/22 05:06:47;;;;;;;1.88;1.77;;;;;;;;;;5139600;27;20202;-61
2022/05/22 05:09:14;;;;;;;1.70;1.60;;;;;;;;;;5139495;27;20228;-61
2022/05/22 05:11:42;;;;;;;1.77;1.67;;;;;;;;;;5121838;27;20503;-61
2022/05/22 05:14:10;;;;;;;1.90;1.80;;;;;;;;;;5118376;28;20319;-62
2022/05/22 05:16:37;;;;;;;1.90;1.80;;;;;;;;;;5118890;28;20203;-61
2022/05/22 05:19:06;;;;;;;1.90;1.80;;;;;;;;;;5118756;28;20202;-62
2022/05/22 05:21:33;;;;;;;2.00;1.90;;;;;;;;;;5134404;27;20504;-62
2022/05/22 05:24:00;;;;;;;1.98;1.88;;;;;;;;;;5139036;27;20202;-61
2022/05/22 05:26:28;;;;;;;1.85;1.75;;;;;;;;;;5138991;27;20201;-62
2022/05/22 05:28:56;;;;;;;1.95;1.85;;;;;;;;;;5138841;27;20210;-61
2022/05/22 05:31:23;;;;;;;2.30;2.10;;;;;;;;;;5124000;27;20227;-61
2022/05/22 05:33:51;;;;;;;2.05;1.90;;;;;;;;;;5118279;28;20210;-61
2022/05/22 05:36:19;;;;;;;1.80;1.70;;;;;;;;;;5118257;28;20470;-61
2022/05/22 05:38:47;;;;;;;1.90;1.80;;;;;;;;;;5118212;28;20213;-60
2022/05/22 05:41:14;;;;;;;1.85;1.75;;;;;;;;;;5130318;27;20194;-61
2022/05/22 05:43:42;;;;;;;2.13;2.03;;;;;;;;;;5136613;27;20509;-61
2022/05/22 05:46:11;;;;;;;2.05;1.95;;;;;;;;;;5117983;28;20207;-61
2022/05/22 05:48:38;;;;;;;2.15;2.05;;;;;;;;;;5118344;28;20210;-61
2022/05/22 05:51:05;;;;;;;1.90;1.80;;;;;;;;;;5117801;28;20248;-60
2022/05/22 05:53:34;;;;;;;1.90;1.80;;;;;;;;;;5118224;28;20210;-61
2022/05/22 05:56:04;;;;;;;1.98;1.88;;;;;;;;;;5118355;28;20484;-61
2022/05/22 05:58:31;;;;;;;2.08;1.88;;;;;;;;;;5118122;28;20210;-62
2022/05/22 06:00:58;;;;;;;2.08;1.98;;;;;;;;;;5118136;28;20210;-61
2022/05/22 06:03:26;;;;;;;2.20;2.10;;;;;;;;;;5117814;28;20216;-63
2022/05/22 06:05:53;;;;;;;2.33;1.83;;;;;;;;;;5117874;28;20202;-61
2022/05/22 06:08:21;;;;;;;1.98;1.80;;;;;;;;;;5133958;28;20194;-61
2022/05/22 06:10:52;;;;;;;2.00;1.90;;;;;;;;;;5138805;28;20229;-61
2022/05/22 06:13:20;;;;;;;2.13;2.03;;;;;;;;;;5138615;28;20198;-61
2022/05/22 06:15:47;;;;;;;2.20;2.00;;;;;;;;;;5119544;28;20241;-61
2022/05/22 06:18:14;;;;;;;2.05;1.95;;;;;;;;;;5117729;28;20578;-61
2022/05/22 06:20:42;;;;;;;1.95;1.83;;;;;;;;;;5118093;28;20194;-62
2022/05/22 06:23:10;;;;;;;2.08;1.98;;;;;;;;;;5118145;28;20214;-62
2022/05/22 06:25:39;;;;;;;2.00;1.90;;;;;;;;;;5133035;28;20201;-61
2022/05/22 06:28:08;;;;;;;2.13;2.03;;;;;;;;;;5117309;28;20211;-61
2022/05/22 06:30:35;;;;;;;2.10;2.00;;;;;;;;;;5117515;28;20222;-61
2022/05/22 06:33:07;;;;;;;1.95;1.85;;;;;;;;;;5117833;28;20210;-60
2022/05/22 06:35:35;;;;;;;2.13;2.03;;;;;;;;;;5117113;28;20211;-62
2022/05/22 06:38:03;;;;;;;2.20;2.10;;;;;;;;;;5117232;28;20260;-61
2022/05/22 06:40:29;;;;;;;2.03;1.92;;;;;;;;;;5117918;28;20225;-62
2022/05/22 06:42:59;;;;;;;2.20;2.00;;;;;;;;;;5124815;28;20198;-61
2022/05/22 06:45:28;;;;;;;2.20;2.10;;;;;;;;;;5138080;28;20202;-60
2022/05/22 06:47:55;;;;;;;1.95;1.85;;;;;;;;;;5137918;28;20237;-61
2022/05/22 06:50:24;;;;;;;2.20;1.95;;;;;;;;;;5138237;28;20226;-61
2022/05/22 06:52:52;;;;;;;2.03;1.90;;;;;;;;;;5130829;28;20589;-62
2022/05/22 06:55:20;;;;;;;2.13;1.90;;;;;;;;;;5117372;28;20210;-60
2022/05/22 06:57:47;;;;;;;2.25;2.05;;;;;;;;;;5117769;28;20203;-61
2022/05/22 07:00:16;;;;;;;2.13;1.92;;;;;;;;;;5120562;28;20214;-61
2022/05/22 07:02:44;;;;;;;2.22;2.13;;;;;;;;;;5125349;27;20198;-61
2022/05/22 07:05:13;;;;;;;2.17;2.03;;;;;;;;;;5141241;27;20237;-61
2022/05/22 07:07:40;;;;;;;2.28;2.03;;;;;;;;;;5141031;27;20214;-61
2022/05/22 07:10:08;;;;;;;2.13;2.03;;;;;;;;;;5140432;27;20203;-61
2022/05/22 07:12:36;;;;;;;2.15;2.00;;;;;;;;;;5136346;27;20195;-61
2022/05/22 07:15:03;;;;;;;2.38;2.10;;;;;;;;;;5119981;28;20630;-61
2022/05/22 07:17:31;;;;;;;2.08;1.98;;;;;;;;;;5120099;28;20202;-61
2022/05/22 07:20:00;;;;;;;2.30;2.15;;;;;;;;;;5120129;28;20202;-60
2022/05/22 07:22:28;;;;;;;2.20;2.10;;;;;;;;;;5122242;27;20600;-61
2022/05/22 07:24:55;;;;;;;1.75;1.65;;;;;;;;;;5140671;27;20205;-61
2022/05/22 07:27:23;;;;;;;2.17;2.00;;;;;;;;;;5140759;27;20633;-61
2022/05/22 07:29:51;;;;;;;1.80;1.70;;;;;;;;;;5140985;27;20249;-61
2022/05/22 07:32:19;;;;;;;1.98;1.88;;;;;;;;;;5139322;27;20589;-61
2022/05/22 07:34:48;;;;;;;2.00;1.80;;;;;;;;;;5120365;28;20297;-60
2022/05/22 07:37:17;;;;;;;1.80;1.70;;;;;;;;;;5119949;28;20294;-61
2022/05/22 07:39:44;;;;;;;2.00;1.90;;;;;;;;;;5120393;28;20262;-61
2022/05/22 07:42:12;;;;;;;2.40;2.20;;;;;;;;;;5119475;28;20206;-60
2022/05/22 07:44:40;;;;;;;2.60;2.40;;;;;;;;;;5119159;28;20209;-61
2022/05/22 07:47:08;;;;;;;2.50;2.30;;;;;;;;;;5119531;28;20514;-60
2022/05/22 07:52:21;;;;;;;2.28;2.13;;;;;;;;;;5119431;27;20640;-61
2022/05/22 07:54:49;;;;;;;2.63;2.42;;;;;;;;;;5140020;27;20212;-60
2022/05/22 07:57:17;;;;;;;2.28;2.08;;;;;;;;;;5140166;27;20244;-60
2022/05/22 07:59:45;;;;;;;2.15;1.95;;;;;;;;;;5139330;27;20496;-61
2022/05/22 08:02:13;;;;;;;1.98;1.88;;;;;;;;;;5139885;27;20537;-61
2022/05/22 08:04:40;;;;;;;2.35;2.00;;;;;;;;;;5138837;27;20232;-61
2022/05/22 08:07:08;;;;;;;2.88;2.55;;;;;;;;;;5140024;27;20198;-61
2022/05/22 08:09:37;;;;;;;2.40;2.20;;;;;;;;;;5139117;27;20202;-60
2022/05/22 08:12:05;;;;;;;2.47;2.20;;;;;;;;;;5140013;27;20481;-61
2022/05/22 08:14:33;;;;;;;2.38;2.20;;;;;;;;;;5119929;27;20242;-61
2022/05/22 08:17:00;;;;;;;2.50;2.30;;;;;;;;;;5119166;28;20207;-61
2022/05/22 08:19:27;;;;;;;3.05;2.10;;;;;;;;;;5118763;28;20207;-60
2022/05/22 08:21:55;;;;;;;2.45;2.25;;;;;;;;;;5119017;28;20195;-61
2022/05/22 08:24:22;;;;;;;2.15;2.05;;;;;;;;;;5135939;27;20285;-60
2022/05/22 08:26:52;;;;;;;2.05;1.95;;;;;;;;;;5139458;27;20210;-61
2022/05/22 08:29:19;;;;;;;2.10;1.92;;;;;;;;;;5139971;27;20662;-61
2022/05/22 08:31:47;;;;;;;2.22;2.00;;;;;;;;;;5138868;27;20287;-60
2022/05/22 08:34:14;;;;;;;8.32;2.30;;;;;;;;;;5121830;27;20289;-60
2022/05/22 08:36:42;;;;;;;3.10;2.20;;;;;;;;;;5118174;28;20218;-60
2022/05/22 08:39:10;;;;;;;3.50;2.13;;;;;;;;;;5118694;28;20250;-60
2022/05/22 08:41:42;;;;;;;4.93;2.88;;;;;;;;;;5117486;28;20213;-61
2022/05/22 08:44:12;;;;;;;3.58;2.58;;;;;;;;;;5132990;27;20198;-61
2022/05/22 08:46:48;;;;;;;3.85;2.38;;;;;;;;;;5139541;27;20206;-60
2022/05/22 08:49:24;;;;;;;8.15;2.20;;;;;;;;;;5139000;27;20202;-60
2022/05/22 08:51:53;;;;;;;4.18;2.30;;;;;;;;;;5139369;27;20233;-61
2022/05/22 08:54:24;;;;;;;3.97;2.42;;;;;;;;;;5137997;27;20581;-60
2022/05/22 08:59:40;;;;;;;3.95;2.20;;;;;;;;;;5138313;27;20259;-60
2022/05/22 09:02:15;;;;;;;3.85;2.20;;;;;;;;;;5138372;27;20198;-61
2022/05/22 09:04:45;;;;;;;4.40;2.42;;;;;;;;;;5118327;27;20617;-60
2022/05/22 09:07:19;;;;;;;5.82;2.38;;;;;;;;;;5118644;28;20203;-60
2022/05/22 09:09:48;;;;;;;3.72;2.40;;;;;;;;;;5117467;28;20211;-60
2022/05/22 09:12:36;;;;;;;3.38;2.15;;;;;;;;;;5117057;28;20258;-61
2022/05/22 09:15:07;;;;;;;2.88;2.28;;;;;;;;;;5112811;28;20246;-61
2022/05/22 09:17:37;;;;;;;2.83;2.20;;;;;;;;;;5130404;27;20617;-60
2022/05/22 09:20:10;;;;;;;5.25;2.00;;;;;;;;;;5138087;27;20202;-60
2022/05/22 09:22:42;;;;;;;2.55;1.80;;;;;;;;;;5137043;27;20198;-61
2022/05/22 09:25:15;;;;;;;2.67;1.90;;;;;;;;;;5137881;27;20236;-61
2022/05/22 09:27:46;;;;;;;3.63;2.03;;;;;;;;;;5137224;27;20202;-61
2022/05/22 09:30:20;;;;;;;3.35;2.50;;;;;;;;;;5137313;27;20207;-61
2022/05/22 09:33:04;;;;;;;2.60;2.40;;;;;;;;;;5134363;27;20226;-60
2022/05/22 09:35:35;;;;;;;2.60;1.95;;;;;;;;;;5116638;28;20209;-60
2022/05/22 09:38:10;;;;;;;3.67;2.20;;;;;;;;;;5116565;28;20203;-60
2022/05/22 09:40:43;;;;;;;2.47;2.00;;;;;;;;;;5116390;28;20202;-60
2022/05/22 09:43:27;;;;;;;3.80;2.00;;;;;;;;;;5121244;27;20213;-61
2022/05/22 09:46:05;;;;;;;2.15;1.95;;;;;;;;;;5136866;27;20596;-60
2022/05/22 09:48:46;;;;;;;2.58;2.05;;;;;;;;;;5136737;27;20206;-61
2022/05/22 09:51:22;;;;;;;1.88;1.77;;;;;;;;;;5136855;27;20316;-60
2022/05/22 09:53:57;;;;;;;2.35;2.15;;;;;;;;;;5125950;28;20199;-61
2022/05/22 09:56:30;;;;;;;5.25;2.30;;;;;;;;;;5117141;28;20208;-62
2022/05/22 09:59:10;;;;;;;2.22;2.03;;;;;;;;;;5116558;28;20199;-60
2022/05/22 10:01:42;;;;;;;2.85;2.00;;;;;;;;;;5117039;28;20293;-61
2022/05/22 10:04:20;;;;;;;2.63;2.00;;;;;;;;;;5129526;28;20826;-61
2022/05/22 10:06:53;;;;;;;2.78;2.00;;;;;;;;;;5136776;28;20202;-60
2022/05/22 10:09:27;;;;;;;4.82;2.00;;;;;;;;;;5137188;28;20202;-60
2022/05/22 10:12:04;;;;;;;5.53;2.42;;;;;;;;;;5137006;28;20588;-61
2022/05/22 10:14:38;;;;;;;4.00;2.10;;;;;;;;;;5120816;28;20234;-61
2022/05/22 10:17:12;;;;;;;2.58;2.00;;;;;;;;;;5116746;28;20213;-61
2022/05/22 10:19:46;;;;;;;2.10;2.00;;;;;;;;;;5116378;28;20198;-60
2022/05/22 10:22:19;;;;;;;2.10;1.90;;;;;;;;;;5116962;28;20203;-61
2022/05/22 10:25:01;;;;;;;4.85;2.20;;;;;;;;;;5130447;28;20573;-60
2022/05/22 10:27:34;;;;;;;1.98;1.83;;;;;;;;;;5133916;28;20202;-61
2022/05/22 10:30:06;;;;;;;3.08;2.00;;;;;;;;;;5136655;28;20588;-61
2022/05/22 10:32:36;;;;;;;3.67;2.10;;;;;;;;;;5139112;27;20226;-61
2022/05/22 10:35:07;;;;;;;2.10;1.92;;;;;;;;;;5120723;27;20213;-61
2022/05/22 10:37:38;;;;;;;3.22;2.13;;;;;;;;;;5119702;28;20215;-60
2022/05/22 10:40:07;;;;;;;2.85;2.00;;;;;;;;;;5119946;28;20203;-60
2022/05/22 10:42:45;;;;;;;2.53;2.10;;;;;;;;;;5120028;28;20199;-60
2022/05/22 10:45:18;;;;;;;3.72;2.30;;;;;;;;;;5119987;28;20293;-60
2022/05/22 10:47:46;;;;;;;3.45;2.33;;;;;;;;;;5119789;28;20203;-61
2022/05/22 10:50:15;;;;;;;2.15;1.95;;;;;;;;;;5119556;28;20298;-61
2022/05/22 10:52:43;;;;;;;3.17;1.90;;;;;;;;;;5119677;27;20230;-60
2022/05/22 10:55:18;;;;;;;2.08;1.98;;;;;;;;;;5120101;28;20297;-61
2022/05/22 10:57:54;;;;;;;2.60;2.20;;;;;;;;;;5119590;28;20212;-61
2022/05/22 11:00:22;;;;;;;2.20;1.92;;;;;;;;;;5119891;28;20562;-61
2022/05/22 11:02:51;;;;;;;2.97;1.98;;;;;;;;;;5119617;27;20480;-60
2022/05/22 11:05:20;;;;;;;2.65;2.15;;;;;;;;;;5119101;28;20209;-61
2022/05/22 11:07:48;;;;;;;2.75;1.90;;;;;;;;;;5118932;28;20194;-61
2022/05/22 11:10:17;;;;;;;3.22;2.22;;;;;;;;;;5119299;28;20294;-62
2022/05/22 11:12:45;;;;;;;2.40;2.13;;;;;;;;;;5118508;28;20231;-61
2022/05/22 11:15:14;;;;;;;2.03;1.83;;;;;;;;;;5118863;28;20229;-60
2022/05/22 11:17:41;;;;;;;2.65;1.80;;;;;;;;;;5119007;28;20570;-60
2022/05/22 11:20:16;;;;;;;2.60;1.77;;;;;;;;;;5119507;28;20203;-61
2022/05/22 11:22:58;;;;;;;2.10;2.00;;;;;;;;;;5118823;28;20281;-61
2022/05/22 11:25:31;;;;;;;2.30;2.00;;;;;;;;;;5118599;28;20497;-61
2022/05/22 11:28:05;;;;;;;2.70;1.83;;;;;;;;;;5119356;28;20203;-60
2022/05/22 11:30:37;;;;;;;3.08;2.30;;;;;;;;;;5118557;28;20202;-60
2022/05/22 11:33:26;;;;;;;4.40;2.00;;;;;;;;;;5119422;27;20310;-60
2022/05/22 11:35:58;;;;;;;2.55;1.92;;;;;;;;;;5113223;28;20574;-60
2022/05/22 11:38:40;;;;;;;2.67;2.05;;;;;;;;;;5119077;28;20199;-60
2022/05/22 11:41:14;;;;;;;4.60;1.95;;;;;;;;;;5114924;28;20213;-60
2022/05/22 11:43:48;;;;;;;3.78;2.10;;;;;;;;;;5123856;27;20190;-60
2022/05/22 11:46:21;;;;;;;2.88;2.10;;;;;;;;;;5138480;27;20212;-60
2022/05/22 11:48:53;;;;;;;2.65;1.98;;;;;;;;;;5139435;27;20202;-60
2022/05/22 11:51:34;;;;;;;2.30;2.10;;;;;;;;;;5138570;27;20198;-60
2022/05/22 11:54:12;;;;;;;2.88;2.00;;;;;;;;;;5128919;27;20195;-61
2022/05/22 11:56:55;;;;;;;3.28;2.10;;;;;;;;;;5118562;27;20203;-60
2022/05/22 11:59:32;;;;;;;3.53;2.00;;;;;;;;;;5118352;28;20449;-61
2022/05/22 12:02:02;;;;;;;2.47;1.92;;;;;;;;;;5118706;28;20306;-61
2022/05/22 12:04:37;;;;;;;2.20;2.00;;;;;;;;;;5131929;27;20199;-60
2022/05/22 12:07:10;;;;;;;2.45;2.25;;;;;;;;;;5138288;27;20628;-60
2022/05/22 12:09:48;;;;;;;2.03;1.92;;;;;;;;;;5138098;27;20229;-61
2022/05/22 12:12:20;;;;;;;2.70;2.08;;;;;;;;;;5138832;27;20221;-61
2022/05/22 12:15:02;;;;;;;2.53;1.73;;;;;;;;;;5122035;27;20672;-61
2022/05/22 12:17:33;;;;;;;2.65;1.88;;;;;;;;;;5118514;28;20203;-61
2022/05/22 12:20:04;;;;;;;3.88;1.80;;;;;;;;;;5117119;28;20202;-60
2022/05/22 12:25:21;;;;;;;2.17;2.00;;;;;;;;;;5122188;27;20186;-61
2022/05/22 12:27:49;;;;;;;2.58;1.80;;;;;;;;;;5138158;27;20612;-61
2022/05/22 12:30:20;;;;;;;2.10;1.90;;;;;;;;;;5137586;27;20210;-60
2022/05/22 12:32:51;;;;;;;2.30;2.10;;;;;;;;;;5138241;27;20321;-61
2022/05/22 12:35:19;;;;;;;2.13;2.03;;;;;;;;;;5137421;27;20208;-60
2022/05/22 12:37:50;;;;;;;3.03;2.15;;;;;;;;;;5138063;27;20206;-60
2022/05/22 12:40:30;;;;;;;3.25;2.00;;;;;;;;;;5122166;27;20206;-60
2022/05/22 12:42:59;;;;;;;2.20;2.00;;;;;;;;;;5117700;28;20199;-60
2022/05/22 12:45:27;;;;;;;2.35;2.15;;;;;;;;;;5117267;28;20700;-60
2022/05/22 12:47:55;;;;;;;2.08;1.90;;;;;;;;;;5116602;28;20273;-61
2022/05/22 12:50:28;;;;;;;2.15;1.95;;;;;;;;;;5117478;28;20481;-61
2022/05/22 12:52:56;;;;;;;2.92;2.25;;;;;;;;;;5116252;28;20238;-60
2022/05/22 12:55:30;;;;;;;3.15;2.20;;;;;;;;;;5123719;27;20297;-60
2022/05/22 12:57:58;;;;;;;2.42;1.92;;;;;;;;;;5137720;27;20205;-60
2022/05/22 13:00:33;;;;;;;2.00;1.90;;;;;;;;;;5137672;27;20218;-61
2022/05/22 13:03:08;;;;;;;2.40;2.20;;;;;;;;;;5137265;27;20572;-60
2022/05/22 13:05:36;;;;;;;2.20;2.00;;;;;;;;;;5137541;27;20202;-61
2022/05/22 13:08:14;;;;;;;2.22;1.95;;;;;;;;;;5137060;27;20597;-60
2022/05/22 13:10:45;;;;;;;2.38;2.17;;;;;;;;;;5136904;27;20205;-61
2022/05/22 13:13:23;;;;;;;2.53;2.20;;;;;;;;;;5130446;27;20266;-61
2022/05/22 13:15:54;;;;;;;2.30;2.10;;;;;;;;;;5116445;28;20222;-60
2022/05/22 13:18:22;;;;;;;2.10;2.00;;;;;;;;;;5116546;28;20570;-60
2022/05/22 13:20:52;;;;;;;2.70;2.38;;;;;;;;;;5116269;28;20210;-60
2022/05/22 13:23:30;;;;;;;2.30;2.10;;;;;;;;;;5135816;27;20485;-60
2022/05/22 13:25:59;;;;;;;2.33;2.17;;;;;;;;;;5134840;27;20209;-60
2022/05/22 13:28:28;;;;;;;2.58;2.13;;;;;;;;;;5136203;27;20197;-61
2022/05/22 13:30:58;;;;;;;2.35;2.15;;;;;;;;;;5136824;27;20208;-61
2022/05/22 13:33:25;;;;;;;2.28;2.10;;;;;;;;;;5124736;27;20215;-61
2022/05/22 13:35:56;;;;;;;2.30;2.10;;;;;;;;;;5115830;28;20213;-60
2022/05/22 13:38:23;;;;;;;2.20;2.10;;;;;;;;;;5115969;28;20210;-60
2022/05/22 13:40:59;;;;;;;2.35;2.15;;;;;;;;;;5115849;28;20203;-60
2022/05/22 13:43:44;;;;;;;2.10;1.90;;;;;;;;;;5115760;28;20191;-61
2022/05/22 13:46:23;;;;;;;2.45;2.20;;;;;;;;;;5116463;28;20307;-60
2022/05/22 13:48:59;;;;;;;2.00;1.90;;;;;;;;;;5129318;27;20589;-61
2022/05/22 13:54:35;;;;;;;2.10;2.00;;;;;;;;;;5130470;27;20221;-61
2022/05/22 13:57:07;;;;;;;2.05;1.90;;;;;;;;;;5116008;28;20210;-61
2022/05/22 13:59:37;;;;;;;2.50;2.00;;;;;;;;;;5116540;28;20213;-60
2022/05/22 14:02:07;;;;;;;2.10;1.90;;;;;;;;;;5116955;28;20217;-61
2022/05/22 14:04:37;;;;;;;2.28;1.90;;;;;;;;;;5116478;28;20203;-61
2022/05/22 14:07:07;;;;;;;2.35;2.15;;;;;;;;;;5117902;28;20276;-61
2022/05/22 14:09:38;;;;;;;3.53;2.20;;;;;;;;;;5120598;28;20607;-60
2022/05/22 14:12:08;;;;;;;2.78;2.17;;;;;;;;;;5120074;28;20297;-60
2022/05/22 14:14:36;;;;;;;3.45;2.53;;;;;;;;;;5119296;28;20230;-61
2022/05/22 14:17:05;;;;;;;2.40;2.20;;;;;;;;;;5119730;27;20252;-61
2022/05/22 14:19:35;;;;;;;4.70;2.00;;;;;;;;;;5139342;27;20198;-61
2022/05/22 14:22:08;;;;;;;3.30;2.10;;;;;;;;;;5140183;27;20202;-61
2022/05/22 14:24:54;;;;;;;2.10;2.00;;;;;;;;;;5139840;27;20284;-60
2022/05/22 14:27:28;;;;;;;2.25;2.13;;;;;;;;;;5140643;27;20202;-62
2022/05/22 14:30:06;;;;;;;3.17;2.10;;;;;;;;;;5139994;27;20608;-60
2022/05/22 14:32:34;;;;;;;2.47;1.95;;;;;;;;;;5140283;27;20251;-61
2022/05/22 14:35:01;;;;;;;2.65;2.10;;;;;;;;;;5140319;27;20558;-61
2022/05/22 14:37:28;;;;;;;2.70;2.22;;;;;;;;;;5139562;27;20688;-60
2022/05/22 14:39:56;;;;;;;3.55;2.10;;;;;;;;;;5139612;27;20207;-61
2022/05/22 14:42:29;;;;;;;2.05;1.92;;;;;;;;;;5139247;27;20194;-61
2022/05/22 14:44:56;;;;;;;3.63;2.20;;;;;;;;;;5120955;27;20629;-61
2022/05/22 14:47:27;;;;;;;3.25;2.33;;;;;;;;;;5118828;28;20214;-62
2022/05/22 14:49:56;;;;;;;2.33;2.13;;;;;;;;;;5119229;28;20266;-61
2022/05/22 14:52:26;;;;;;;2.03;1.92;;;;;;;;;;5119114;28;20206;-60
2022/05/22 14:54:55;;;;;;;2.30;2.08;;;;;;;;;;5119430;28;20696;-61
2022/05/22 14:57:24;;;;;;;2.47;2.28;;;;;;;;;;5119109;28;20203;-61
2022/05/22 14:59:56;;;;;;;2.53;2.30;;;;;;;;;;5119228;28;20205;-61
2022/05/22 15:02:27;;;;;;;2.67;2.13;;;;;;;;;;5117966;28;20731;-60
2022/05/22 15:04:54;;;;;;;3.00;2.35;;;;;;;;;;5119477;28;20513;-61
2022/05/22 15:07:23;;;;;;;2.30;2.10;;;;;;;;;;5119369;28;20202;-62
2022/05/22 15:09:55;;;;;;;2.92;2.38;;;;;;;;;;5118928;28;20214;-61
2022/05/22 15:12:25;;;;;;;2.65;2.22;;;;;;;;;;5135308;27;20247;-60